createdAt,value
2019-04-07T00:01:31.796Z,7.40
2019-04-07T00:04:02.358Z,8.17
2019-04-07T00:06:35.044Z,9.67
2019-04-07T00:09:07.424Z,8.58
2019-04-07T00:11:38.406Z,5.83
2019-04-07T00:14:09.523Z,6.50
2019-04-07T00:16:40.301Z,7.22
2019-04-07T00:19:11.148Z,6.70
2019-04-07T00:21:43.636Z,6.25
2019-04-07T00:24:14.605Z,10.20
2019-04-07T00:26:45.117Z,8.75
2019-04-07T00:29:15.938Z,13.90
2019-04-07T00:31:46.821Z,8.00
2019-04-07T00:34:17.475Z,8.88
2019-04-07T00:36:48.161Z,6.78
2019-04-07T00:39:19.099Z,7.58
2019-04-07T00:41:50.756Z,6.23
2019-04-07T00:44:21.415Z,8.00
2019-04-07T00:46:51.868Z,7.22
2019-04-07T00:49:23.361Z,10.15
2019-04-07T00:51:55.046Z,6.65
2019-04-07T00:54:25.688Z,8.60
2019-04-07T00:56:56.574Z,7.45
2019-04-07T00:59:27.634Z,7.03
2019-04-07T01:01:58.791Z,8.08
2019-04-07T01:04:29.459Z,6.72
2019-04-07T01:07:00.908Z,7.05
2019-04-07T01:09:31.996Z,7.15
2019-04-07T01:12:03.116Z,7.30
2019-04-07T01:14:33.794Z,7.87
2019-04-07T01:17:06.156Z,7.08
2019-04-07T01:19:38.044Z,7.30
2019-04-07T01:22:09.958Z,7.00
2019-04-07T01:24:40.705Z,8.38
2019-04-07T01:27:13.758Z,7.57
2019-04-07T01:29:44.351Z,10.40
2019-04-07T01:32:16.118Z,6.75
2019-04-07T01:34:46.934Z,6.50
2019-04-07T01:37:17.522Z,9.63
2019-04-07T01:39:50.096Z,7.37
2019-04-07T01:42:38.407Z,8.10
2019-04-07T01:45:34.382Z,8.58
2019-04-07T01:48:13.935Z,6.90
2019-04-07T01:51:01.471Z,10.05
2019-04-07T01:54:10.106Z,8.05
2019-04-07T01:57:03.350Z,9.15
2019-04-07T01:59:54.028Z,9.10
2019-04-07T02:02:43.664Z,7.87
2019-04-07T02:05:31.427Z,9.05
2019-04-07T02:08:24.085Z,7.78
2019-04-07T02:11:14.597Z,8.73
2019-04-07T02:14:03.874Z,8.43
2019-04-07T02:16:47.755Z,9.08
2019-04-07T02:19:37.289Z,9.25
2019-04-07T02:22:26.347Z,8.95
2019-04-07T02:25:14.698Z,9.25
2019-04-07T02:27:55.652Z,9.53
2019-04-07T02:30:35.239Z,10.13
2019-04-07T02:33:24.981Z,10.87
2019-04-07T02:36:21.380Z,10.98
2019-04-07T02:39:13.531Z,9.90
2019-04-07T02:42:08.771Z,12.43
2019-04-07T02:45:02.562Z,12.90
2019-04-07T02:47:39.420Z,14.43
2019-04-07T02:50:33.261Z,13.20
2019-04-07T02:53:38.017Z,11.55
2019-04-07T02:56:18.107Z,11.50
2019-04-07T02:59:23.185Z,13.48
2019-04-07T03:02:12.042Z,13.18
2019-04-07T03:04:52.436Z,13.43
2019-04-07T03:07:32.598Z,10.98
2019-04-07T03:10:10.906Z,10.65
2019-04-07T03:13:01.023Z,10.53
2019-04-07T03:15:56.789Z,10.60
2019-04-07T03:18:46.322Z,12.00
2019-04-07T03:21:45.749Z,15.10
2019-04-07T03:24:26.675Z,12.13
2019-04-07T03:27:10.109Z,12.10
2019-04-07T03:29:47.446Z,14.18
2019-04-07T03:32:38.825Z,11.05
2019-04-07T03:35:34.147Z,14.18
2019-04-07T03:38:25.812Z,10.82
2019-04-07T03:41:10.262Z,9.88
2019-04-07T03:43:51.180Z,12.65
2019-04-07T03:46:32.670Z,10.20
2019-04-07T03:49:11.779Z,10.48
2019-04-07T03:51:59.818Z,14.35
2019-04-07T03:54:49.308Z,11.90
2019-04-07T03:57:26.351Z,14.78
2019-04-07T04:00:19.192Z,14.50
2019-04-07T04:03:07.221Z,11.35
2019-04-07T04:06:04.658Z,14.23
2019-04-07T04:08:52.891Z,16.03
2019-04-07T04:11:40.639Z,14.87
2019-04-07T04:14:16.743Z,11.20
2019-04-07T04:16:50.915Z,13.18
2019-04-07T04:19:23.332Z,11.88
2019-04-07T04:21:54.778Z,13.60
2019-04-07T04:24:26.983Z,15.13
2019-04-07T04:27:00.992Z,17.40
2019-04-07T04:29:33.339Z,13.90
2019-04-07T04:32:05.754Z,9.73
2019-04-07T04:34:36.978Z,9.28
2019-04-07T04:37:08.117Z,15.15
2019-04-07T04:39:39.633Z,13.93
2019-04-07T04:42:10.468Z,12.03
2019-04-07T04:44:42.254Z,10.20
2019-04-07T04:47:14.991Z,8.95
2019-04-07T04:49:46.608Z,11.63
2019-04-07T04:52:18.063Z,10.58
2019-04-07T04:54:49.723Z,13.05
2019-04-07T04:57:21.760Z,12.53
2019-04-07T04:59:55.838Z,11.97
2019-04-07T05:02:27.657Z,10.58
2019-04-07T05:04:59.411Z,15.55
2019-04-07T05:07:30.214Z,12.70
2019-04-07T05:10:01.589Z,13.00
2019-04-07T05:12:33.517Z,10.00
2019-04-07T05:15:04.154Z,11.40
2019-04-07T05:17:35.401Z,11.83
2019-04-07T05:20:06.850Z,12.07
2019-04-07T05:22:38.024Z,11.48
2019-04-07T05:25:09.449Z,12.75
2019-04-07T05:27:41.609Z,13.50
2019-04-07T05:30:12.991Z,12.80
2019-04-07T05:32:44.291Z,11.93
2019-04-07T05:35:15.776Z,16.60
2019-04-07T05:37:58.822Z,12.53
2019-04-07T05:40:19.217Z,13.58
2019-04-07T05:42:50.991Z,15.10
2019-04-07T05:45:22.661Z,11.60
2019-04-07T05:47:55.428Z,12.78
2019-04-07T05:50:28.072Z,11.78
2019-04-07T05:52:59.855Z,12.65
2019-04-07T05:55:32.052Z,11.15
2019-04-07T05:58:05.014Z,10.25
2019-04-07T06:00:35.308Z,12.60
2019-04-07T06:03:08.370Z,11.85
2019-04-07T06:05:38.912Z,11.18
2019-04-07T06:08:22.548Z,12.60
2019-04-07T06:10:43.609Z,11.63
2019-04-07T06:13:15.764Z,11.35
2019-04-07T06:15:46.678Z,11.97
2019-04-07T06:18:18.483Z,12.30
2019-04-07T06:20:49.819Z,13.35
2019-04-07T06:23:24.241Z,14.55
2019-04-07T06:25:57.150Z,12.05
2019-04-07T06:28:26.779Z,10.82
2019-04-07T06:31:00.165Z,13.35
2019-04-07T06:33:30.521Z,11.43
2019-04-07T06:36:01.043Z,12.03
2019-04-07T06:38:34.975Z,10.95
2019-04-07T06:41:04.069Z,11.08
2019-04-07T06:43:38.125Z,11.08
2019-04-07T06:46:28.476Z,11.13
2019-04-07T06:49:23.206Z,11.53
2019-04-07T06:52:25.867Z,11.30
2019-04-07T06:55:19.040Z,13.30
2019-04-07T06:58:15.324Z,13.35
2019-04-07T07:01:20.033Z,12.93
2019-04-07T07:04:24.486Z,12.90
2019-04-07T07:07:26.104Z,13.48
2019-04-07T07:10:26.163Z,20.05
2019-04-07T07:12:59.912Z,11.55
2019-04-07T07:15:46.079Z,13.68
2019-04-07T07:18:35.773Z,15.00
2019-04-07T07:21:13.366Z,13.95
2019-04-07T07:23:47.647Z,14.30
2019-04-07T07:26:17.910Z,14.55
2019-04-07T07:28:48.610Z,16.27
2019-04-07T07:31:22.791Z,19.17
2019-04-07T07:33:52.871Z,19.27
2019-04-07T07:36:24.291Z,18.23
2019-04-07T07:39:00.578Z,21.85
2019-04-07T07:41:27.980Z,18.90
2019-04-07T07:44:03.251Z,21.77
2019-04-07T07:46:30.824Z,22.65
2019-04-07T07:49:02.151Z,38.95
2019-04-07T07:51:33.719Z,26.05
2019-04-07T07:54:05.620Z,28.15
2019-04-07T07:56:36.715Z,26.85
2019-04-07T07:59:07.737Z,27.55
2019-04-07T08:01:38.270Z,26.12
2019-04-07T08:04:09.765Z,24.20
2019-04-07T08:06:41.060Z,25.97
2019-04-07T08:09:15.233Z,22.70
2019-04-07T08:11:44.547Z,49.05
2019-04-07T08:14:18.238Z,24.65
2019-04-07T08:16:47.954Z,24.97
2019-04-07T08:19:19.010Z,17.42
2019-04-07T08:21:51.854Z,23.03
2019-04-07T08:24:22.905Z,20.87
2019-04-07T08:26:56.251Z,19.92
2019-04-07T08:29:26.927Z,19.07
2019-04-07T08:31:58.728Z,18.12
2019-04-07T08:34:32.968Z,16.12
2019-04-07T08:37:04.809Z,15.93
2019-04-07T08:39:36.512Z,17.60
2019-04-07T08:42:11.027Z,17.70
2019-04-07T08:44:41.952Z,16.87
2019-04-07T08:47:19.737Z,20.50
2019-04-07T08:49:47.081Z,20.90
2019-04-07T08:52:19.616Z,24.72
2019-04-07T08:54:52.410Z,20.65
2019-04-07T08:57:22.894Z,22.47
2019-04-07T08:59:56.295Z,24.37
2019-04-07T09:02:29.181Z,19.32
2019-04-07T09:05:01.246Z,17.73
2019-04-07T09:07:36.515Z,19.23
2019-04-07T09:10:11.515Z,20.32
2019-04-07T09:12:44.007Z,19.53
2019-04-07T09:15:21.182Z,19.37
2019-04-07T09:18:04.428Z,24.23
2019-04-07T09:21:00.753Z,19.30
2019-04-07T09:24:02.461Z,20.90
2019-04-07T09:26:42.102Z,21.07
2019-04-07T09:29:46.105Z,20.65
2019-04-07T09:32:42.749Z,20.37
2019-04-07T09:35:41.466Z,20.32
2019-04-07T09:38:29.411Z,22.65
2019-04-07T09:41:21.579Z,22.30
2019-04-07T09:44:13.613Z,24.27
2019-04-07T09:47:06.973Z,23.17
2019-04-07T09:50:05.465Z,20.85
2019-04-07T09:53:04.354Z,23.15
2019-04-07T09:55:50.346Z,25.00
2019-04-07T09:58:32.050Z,19.80
2019-04-07T10:01:09.274Z,23.80
2019-04-07T10:03:57.612Z,19.98
2019-04-07T10:06:45.758Z,22.62
2019-04-07T10:09:38.618Z,24.98
2019-04-07T10:12:30.115Z,22.13
2019-04-07T10:15:22.481Z,21.10
2019-04-07T10:18:08.819Z,22.13
2019-04-07T10:20:58.762Z,23.80
2019-04-07T10:23:45.849Z,21.17
2019-04-07T10:26:36.192Z,23.10
2019-04-07T10:29:16.666Z,27.07
2019-04-07T10:31:57.426Z,24.27
2019-04-07T10:34:47.119Z,22.53
2019-04-07T10:37:33.612Z,16.07
2019-04-07T10:40:20.348Z,22.48
2019-04-07T10:43:26.093Z,16.27
2019-04-07T10:46:11.218Z,16.55
2019-04-07T10:49:06.818Z,15.65
2019-04-07T10:52:07.515Z,20.35
2019-04-07T10:55:04.883Z,14.63
2019-04-07T10:57:58.417Z,13.65
2019-04-07T11:00:51.001Z,18.10
2019-04-07T11:03:40.475Z,13.93
2019-04-07T11:06:41.625Z,21.68
2019-04-07T11:09:29.985Z,17.27
2019-04-07T11:12:23.238Z,19.48
2019-04-07T11:15:13.776Z,20.33
2019-04-07T11:17:56.079Z,18.23
2019-04-07T11:20:45.610Z,15.57
2019-04-07T11:23:28.463Z,12.33
2019-04-07T11:26:40.599Z,12.58
2019-04-07T11:29:38.684Z,14.87
2019-04-07T11:32:19.581Z,16.30
2019-04-07T11:35:00.523Z,10.70
2019-04-07T11:37:37.565Z,11.67
2019-04-07T11:40:19.379Z,20.50
2019-04-07T11:42:58.904Z,9.60
2019-04-07T11:46:00.031Z,9.10
2019-04-07T11:48:35.384Z,15.38
2019-04-07T11:51:26.030Z,8.58
2019-04-07T11:54:15.187Z,9.45
2019-04-07T11:56:57.594Z,13.00
2019-04-07T12:00:05.297Z,15.23
2019-04-07T12:03:00.875Z,11.10
2019-04-07T12:05:46.863Z,8.48
2019-04-07T12:08:35.221Z,9.40
2019-04-07T12:11:34.396Z,8.03
2019-04-07T12:14:29.185Z,8.25
2019-04-07T12:17:12.578Z,7.72
2019-04-07T12:19:56.541Z,8.18
2019-04-07T12:23:03.734Z,9.18
2019-04-07T12:25:41.562Z,9.83
2019-04-07T12:28:36.511Z,10.43
2019-04-07T12:31:24.965Z,7.15
2019-04-07T12:34:15.333Z,6.55
2019-04-07T12:37:06.850Z,7.83
2019-04-07T12:39:56.659Z,7.87
2019-04-07T12:42:47.097Z,6.95
2019-04-07T12:45:29.903Z,9.18
2019-04-07T12:48:30.014Z,8.08
2019-04-07T12:51:27.655Z,8.00
2019-04-07T12:54:17.923Z,7.72
2019-04-07T12:57:23.085Z,8.93
2019-04-07T13:00:21.147Z,18.98
2019-04-07T13:02:58.571Z,15.18
2019-04-07T13:06:06.251Z,17.45
2019-04-07T13:08:58.136Z,13.65
2019-04-07T13:11:40.202Z,12.88
2019-04-07T13:14:40.401Z,11.95
2019-04-07T13:17:38.046Z,8.68
2019-04-07T13:20:28.752Z,8.35
2019-04-07T13:23:19.132Z,6.80
2019-04-07T13:25:56.744Z,9.60
2019-04-07T13:28:51.676Z,17.77
2019-04-07T13:31:40.029Z,8.00
2019-04-07T13:34:31.075Z,7.95
2019-04-07T13:37:33.108Z,24.65
2019-04-07T13:40:14.087Z,12.63
2019-04-07T13:43:13.414Z,11.50
2019-04-07T13:46:01.223Z,8.30
2019-04-07T13:48:51.151Z,8.30
2019-04-07T13:51:47.186Z,9.73
2019-04-07T13:54:51.659Z,12.23
2019-04-07T13:57:39.257Z,11.15
2019-04-07T14:00:37.101Z,10.68
2019-04-07T14:03:30.449Z,10.82
2019-04-07T14:06:14.290Z,9.05
2019-04-07T14:09:18.012Z,8.98
2019-04-07T14:12:10.575Z,9.68
2019-04-07T14:15:04.098Z,10.60
2019-04-07T14:17:57.951Z,10.70
2019-04-07T14:21:00.927Z,9.98
2019-04-07T14:23:57.167Z,9.33
2019-04-07T14:26:46.768Z,10.03
2019-04-07T14:29:35.903Z,10.68
2019-04-07T14:32:24.491Z,8.88
2019-04-07T14:35:08.197Z,26.02
2019-04-07T14:37:44.867Z,8.83
2019-04-07T14:40:30.479Z,11.70
2019-04-07T14:43:33.216Z,9.63
2019-04-07T14:46:29.530Z,8.40
2019-04-07T14:49:21.817Z,10.85
2019-04-07T14:52:13.373Z,8.68
2019-04-07T14:55:04.891Z,9.50
2019-04-07T14:57:45.857Z,8.28
2019-04-07T15:00:27.058Z,9.88
2019-04-07T15:02:58.409Z,10.25
2019-04-07T15:05:32.694Z,8.80
2019-04-07T15:08:22.534Z,8.73
2019-04-07T15:10:56.297Z,10.82
2019-04-07T15:13:29.187Z,9.00
2019-04-07T15:16:00.911Z,9.45
2019-04-07T15:18:32.025Z,9.13
2019-04-07T15:21:03.471Z,10.15
2019-04-07T15:23:34.728Z,12.98
2019-04-07T15:26:06.199Z,8.38
2019-04-07T15:28:38.455Z,7.97
2019-04-07T15:31:10.098Z,9.55
2019-04-07T15:33:41.206Z,9.17
2019-04-07T15:36:12.789Z,7.92
2019-04-07T15:38:44.095Z,7.03
2019-04-07T15:41:17.605Z,7.27
2019-04-07T15:43:47.522Z,8.68
2019-04-07T15:46:19.597Z,5.53
2019-04-07T15:48:54.312Z,11.28
2019-04-07T15:51:27.046Z,10.07
2019-04-07T15:53:59.429Z,11.60
2019-04-07T15:56:30.366Z,8.18
2019-04-07T15:59:02.240Z,9.63
2019-04-07T16:01:33.735Z,7.40
2019-04-07T16:04:06.110Z,10.15
2019-04-07T16:06:37.189Z,10.93
2019-04-07T16:09:14.004Z,9.27
2019-04-07T16:11:42.364Z,12.70
2019-04-07T16:14:15.905Z,11.85
2019-04-07T16:16:47.244Z,9.73
2019-04-07T16:19:24.934Z,18.30
2019-04-07T16:21:51.449Z,9.00
2019-04-07T16:24:23.000Z,14.83
2019-04-07T16:26:54.733Z,10.45
2019-04-07T16:29:25.801Z,15.30
2019-04-07T16:31:58.628Z,13.90
2019-04-07T16:34:30.460Z,11.28
2019-04-07T16:37:01.862Z,13.18
2019-04-07T16:39:35.233Z,13.40
2019-04-07T16:42:07.373Z,11.28
2019-04-07T16:44:42.486Z,10.30
2019-04-07T16:47:20.874Z,8.68
2019-04-07T16:49:48.841Z,12.43
2019-04-07T16:52:20.471Z,11.83
2019-04-07T16:54:52.685Z,11.83
2019-04-07T16:57:27.338Z,12.18
2019-04-07T16:59:56.346Z,10.65
2019-04-07T17:02:27.429Z,11.65
2019-04-07T17:04:59.318Z,11.00
2019-04-07T17:07:31.744Z,9.88
2019-04-07T17:10:03.738Z,12.15
2019-04-07T17:12:35.545Z,11.25
2019-04-07T17:15:07.860Z,14.28
2019-04-07T17:17:40.042Z,13.20
2019-04-07T17:20:13.533Z,14.63
2019-04-07T17:22:47.718Z,13.75
2019-04-07T17:25:17.815Z,15.18
2019-04-07T17:27:49.796Z,19.30
2019-04-07T17:30:24.381Z,15.45
2019-04-07T17:32:53.868Z,15.00
2019-04-07T17:35:24.911Z,15.55
2019-04-07T17:38:01.696Z,13.62
2019-04-07T17:40:32.955Z,14.65
2019-04-07T17:43:30.941Z,14.83
2019-04-07T17:46:16.971Z,15.53
2019-04-07T17:49:06.709Z,16.48
2019-04-07T17:52:07.025Z,17.23
2019-04-07T17:54:54.144Z,16.10
2019-04-07T17:57:36.623Z,16.87
2019-04-07T18:00:19.296Z,17.55
2019-04-07T18:03:06.091Z,16.00
2019-04-07T18:05:45.386Z,17.23
2019-04-07T18:08:36.200Z,16.52
2019-04-07T18:11:32.853Z,17.07
2019-04-07T18:14:28.365Z,17.37
2019-04-07T18:17:26.805Z,18.23
2019-04-07T18:20:14.020Z,17.80
2019-04-07T18:23:07.509Z,18.65
2019-04-07T18:26:09.895Z,21.27
2019-04-07T18:28:52.603Z,18.48
2019-04-07T18:31:42.019Z,16.45
2019-04-07T18:34:46.973Z,15.68
2019-04-07T18:37:42.165Z,14.90
2019-04-07T18:40:50.629Z,15.87
2019-04-07T18:44:00.744Z,16.75
2019-04-07T18:46:53.308Z,18.73
2019-04-07T18:49:34.295Z,19.73
2019-04-07T18:52:43.072Z,15.53
2019-04-07T18:55:38.194Z,17.25
2019-04-07T18:58:37.235Z,17.37
2019-04-07T19:01:29.221Z,17.90
2019-04-07T19:04:12.155Z,19.00
2019-04-07T19:06:50.260Z,17.65
2019-04-07T19:09:46.297Z,17.90
2019-04-07T19:12:36.472Z,20.57
2019-04-07T19:15:26.393Z,20.83
2019-04-07T19:18:20.420Z,18.17
2019-04-07T19:21:16.287Z,17.95
2019-04-07T19:24:04.498Z,17.98
2019-04-07T19:26:56.214Z,17.60
2019-04-07T19:42:06.928Z,22.00
2019-04-07T19:45:04.016Z,20.97
2019-04-07T19:48:01.947Z,21.12
2019-04-07T19:50:54.932Z,22.17
2019-04-07T19:53:45.717Z,20.32
2019-04-07T19:56:35.135Z,20.77
2019-04-07T19:59:41.622Z,20.62
2019-04-07T20:02:30.526Z,21.97
2019-04-07T20:05:19.513Z,20.60
2019-04-07T20:08:09.819Z,23.00
2019-04-07T20:11:03.529Z,20.43
2019-04-07T20:13:46.604Z,22.07
2019-04-07T20:16:41.305Z,21.77
2019-04-07T20:19:36.162Z,23.70
2019-04-07T20:22:31.658Z,23.65
2019-04-07T20:25:20.498Z,20.65
2019-04-07T20:28:13.110Z,21.17
2019-04-07T20:31:10.506Z,21.77
2019-04-07T20:34:02.214Z,22.20
2019-04-07T20:36:56.495Z,20.63
2019-04-07T20:39:53.189Z,21.87
2019-04-07T20:42:31.228Z,21.45
2019-04-07T20:45:21.215Z,22.37
2019-04-07T20:48:18.067Z,27.35
2019-04-07T20:51:04.646Z,21.30
2019-04-07T20:53:52.008Z,23.87
2019-04-07T20:56:43.550Z,22.58
2019-04-07T20:59:32.025Z,22.45
2019-04-07T21:02:25.023Z,25.05
2019-04-07T21:05:10.155Z,23.00
2019-04-07T21:07:59.714Z,24.47
2019-04-07T21:10:48.238Z,21.77
2019-04-07T21:13:30.875Z,22.90
2019-04-07T21:16:30.022Z,23.80
2019-04-07T21:19:27.344Z,24.23
2019-04-07T21:22:05.535Z,27.50
2019-04-07T21:24:58.655Z,23.00
2019-04-07T21:27:50.922Z,22.85
2019-04-07T21:30:35.116Z,24.50
2019-04-07T21:33:22.126Z,24.57
2019-04-07T21:36:21.816Z,24.37
2019-04-07T21:39:14.546Z,24.18
2019-04-07T21:41:56.293Z,26.20
2019-04-07T21:44:48.898Z,25.10
2019-04-07T21:47:38.594Z,25.35
2019-04-07T21:50:28.525Z,24.05
2019-04-07T21:53:10.102Z,24.35
2019-04-07T21:56:18.610Z,24.12
2019-04-07T21:59:08.020Z,25.13
2019-04-07T22:01:47.514Z,23.30
2019-04-07T22:04:38.185Z,25.90
2019-04-07T22:07:29.662Z,24.05
2019-04-07T22:10:03.101Z,25.05
2019-04-07T22:12:34.481Z,23.30
2019-04-07T22:15:08.756Z,25.48
2019-04-07T22:17:39.433Z,25.23
2019-04-07T22:20:14.785Z,23.73
2019-04-07T22:22:44.547Z,25.07
2019-04-07T22:25:21.333Z,26.85
2019-04-07T22:27:54.477Z,26.37
2019-04-07T22:30:24.254Z,24.23
2019-04-07T22:32:55.627Z,27.20
2019-04-07T22:35:26.604Z,26.02
2019-04-07T22:37:57.112Z,26.12
2019-04-07T22:40:32.962Z,26.17
2019-04-07T22:43:01.814Z,25.23
2019-04-07T22:45:32.804Z,27.30
2019-04-07T22:48:03.480Z,25.68
2019-04-07T22:50:37.210Z,24.02
2019-04-07T22:53:07.365Z,24.77
2019-04-07T22:55:38.719Z,25.30
2019-04-07T22:58:09.161Z,24.83
2019-04-07T23:00:40.344Z,24.70
2019-04-07T23:03:12.786Z,24.57
2019-04-07T23:05:43.355Z,24.25
2019-04-07T23:08:14.561Z,22.70
2019-04-07T23:10:46.255Z,21.68
2019-04-07T23:13:17.037Z,22.87
2019-04-07T23:15:48.587Z,23.52
2019-04-07T23:18:20.747Z,21.90
2019-04-07T23:20:51.568Z,23.38
2019-04-07T23:23:22.173Z,23.73
2019-04-07T23:25:55.679Z,24.18
2019-04-07T23:28:27.039Z,24.07
2019-04-07T23:30:57.789Z,22.35
2019-04-07T23:33:29.802Z,21.93
2019-04-07T23:36:00.587Z,21.43
2019-04-07T23:38:34.442Z,23.25
2019-04-07T23:41:05.416Z,23.10
2019-04-07T23:43:36.152Z,23.43
2019-04-07T23:46:19.434Z,20.43
2019-04-07T23:48:40.253Z,21.70
2019-04-07T23:51:12.257Z,23.00
2019-04-07T23:54:11.129Z,23.17
2019-04-07T23:56:43.972Z,22.80
2019-04-07T23:59:16.646Z,21.52
